createdAt,value
2018-05-29T00:01:10.005Z,15.57
2018-05-29T00:03:36.107Z,18.93
2018-05-29T00:06:02.547Z,20.77
2018-05-29T00:08:28.590Z,17.00
2018-05-29T00:10:54.670Z,15.03
2018-05-29T00:13:20.791Z,17.60
2018-05-29T00:15:46.841Z,14.17
2018-05-29T00:18:12.941Z,16.53
2018-05-29T00:20:38.950Z,15.93
2018-05-29T00:23:05.729Z,14.23
2018-05-29T00:25:31.911Z,13.73
2018-05-29T00:27:57.950Z,14.13
2018-05-29T00:30:24.014Z,14.27
2018-05-29T00:32:50.784Z,14.03
2018-05-29T00:35:16.869Z,15.07
2018-05-29T00:37:42.949Z,18.17
2018-05-29T00:40:09.692Z,13.90
2018-05-29T00:42:36.505Z,21.57
2018-05-29T00:45:02.554Z,17.10
2018-05-29T00:47:28.615Z,18.80
2018-05-29T00:49:54.650Z,12.70
2018-05-29T00:52:20.734Z,20.53
2018-05-29T00:54:59.256Z,14.77
2018-05-29T00:57:25.331Z,13.43
2018-05-29T00:59:51.378Z,13.30
2018-05-29T01:02:17.507Z,14.83
2018-05-29T01:04:44.050Z,13.70
2018-05-29T01:07:10.163Z,15.57
2018-05-29T01:09:36.251Z,13.77
2018-05-29T01:12:02.419Z,12.20
2018-05-29T01:14:29.220Z,14.37
2018-05-29T01:16:56.003Z,12.93
2018-05-29T01:19:22.027Z,13.30
2018-05-29T01:21:48.093Z,11.90
2018-05-29T01:24:14.880Z,16.37
2018-05-29T01:26:41.009Z,12.77
2018-05-29T01:29:07.054Z,13.90
2018-05-29T01:31:33.115Z,12.43
2018-05-29T01:33:59.909Z,15.73
2018-05-29T01:36:26.744Z,13.20
2018-05-29T01:38:52.833Z,18.40
2018-05-29T01:41:18.845Z,16.03
2018-05-29T01:43:45.628Z,21.83
2018-05-29T01:46:12.166Z,15.90
2018-05-29T01:48:38.290Z,13.03
2018-05-29T01:51:05.030Z,14.97
2018-05-29T01:53:31.053Z,12.03
2018-05-29T01:55:57.106Z,13.60
2018-05-29T01:58:23.929Z,16.20
2018-05-29T02:00:49.977Z,18.80
2018-05-29T02:03:16.823Z,17.20
2018-05-29T02:05:42.914Z,21.20
2018-05-29T02:08:08.962Z,15.87
2018-05-29T02:10:35.034Z,12.70
2018-05-29T02:13:01.803Z,17.27
2018-05-29T02:15:27.860Z,13.80
2018-05-29T02:17:54.672Z,13.63
2018-05-29T02:20:20.730Z,16.03
2018-05-29T02:22:46.791Z,12.90
2018-05-29T02:25:13.645Z,12.80
2018-05-29T02:27:40.482Z,17.60
2018-05-29T02:30:06.528Z,14.17
2018-05-29T02:32:32.629Z,16.70
2018-05-29T02:34:58.736Z,15.87
2018-05-29T02:37:24.801Z,12.70
2018-05-29T02:39:50.877Z,12.23
2018-05-29T02:42:16.919Z,23.20
2018-05-29T02:44:43.734Z,14.00
2018-05-29T02:47:09.803Z,14.35
2018-05-29T02:49:35.838Z,13.20
2018-05-29T02:52:01.935Z,14.10
2018-05-29T02:54:27.995Z,14.70
2018-05-29T02:56:54.041Z,17.07
2018-05-29T02:59:20.137Z,15.68
2018-05-29T03:01:46.190Z,13.70
2018-05-29T03:04:12.257Z,18.85
2018-05-29T03:06:58.751Z,17.10
2018-05-29T03:09:24.786Z,15.50
2018-05-29T03:11:50.803Z,14.30
2018-05-29T03:14:16.845Z,16.55
2018-05-29T03:16:42.861Z,14.70
2018-05-29T03:19:08.894Z,12.77
2018-05-29T03:21:34.951Z,14.52
2018-05-29T03:24:01.035Z,16.70
2018-05-29T03:26:27.096Z,14.57
2018-05-29T03:28:53.151Z,14.82
2018-05-29T03:31:19.208Z,12.93
2018-05-29T03:33:45.611Z,15.57
2018-05-29T03:36:12.388Z,17.30
2018-05-29T03:38:38.457Z,13.93
2018-05-29T03:41:04.559Z,15.02
2018-05-29T03:43:30.659Z,17.77
2018-05-29T03:45:56.745Z,13.40
2018-05-29T03:48:22.809Z,15.17
2018-05-29T03:50:48.866Z,14.80
2018-05-29T03:53:14.956Z,16.23
2018-05-29T03:55:40.987Z,18.67
2018-05-29T03:58:07.070Z,15.65
2018-05-29T04:00:33.130Z,13.47
2018-05-29T04:02:59.195Z,13.62
2018-05-29T04:05:25.262Z,13.93
2018-05-29T04:07:51.316Z,15.90
2018-05-29T04:10:17.358Z,15.40
2018-05-29T04:12:43.770Z,17.73
2018-05-29T04:15:09.845Z,13.68
2018-05-29T04:17:35.970Z,14.50
2018-05-29T04:20:02.043Z,16.55
2018-05-29T04:22:28.169Z,15.23
2018-05-29T04:24:54.235Z,16.87
2018-05-29T04:27:21.052Z,18.02
2018-05-29T04:29:47.101Z,16.80
2018-05-29T04:32:13.247Z,17.40
2018-05-29T04:34:39.397Z,18.60
2018-05-29T04:37:07.322Z,14.23
2018-05-29T04:39:33.743Z,21.40
2018-05-29T04:41:59.768Z,14.33
2018-05-29T04:44:26.582Z,16.53
2018-05-29T04:46:52.690Z,12.97
2018-05-29T04:49:18.733Z,13.10
2018-05-29T04:51:44.781Z,16.33
2018-05-29T04:54:10.883Z,14.80
2018-05-29T04:56:36.949Z,18.50
2018-05-29T04:59:03.191Z,18.63
2018-05-29T05:01:29.294Z,17.13
2018-05-29T05:03:56.083Z,14.80
2018-05-29T05:06:22.125Z,18.40
2018-05-29T05:08:48.182Z,17.50
2018-05-29T05:11:14.370Z,13.65
2018-05-29T05:13:40.434Z,16.05
2018-05-29T05:16:06.652Z,15.02
2018-05-29T05:18:32.688Z,17.85
2018-05-29T05:20:59.516Z,18.20
2018-05-29T05:23:25.960Z,16.37
2018-05-29T05:25:52.077Z,15.55
2018-05-29T05:28:18.206Z,19.92
2018-05-29T05:30:44.453Z,13.70
2018-05-29T05:33:10.523Z,16.08
2018-05-29T05:35:36.677Z,15.10
2018-05-29T05:38:03.464Z,17.33
2018-05-29T05:40:29.514Z,18.30
2018-05-29T05:42:55.581Z,22.55
2018-05-29T05:45:21.801Z,16.55
2018-05-29T05:47:47.873Z,24.90
2018-05-29T05:50:14.703Z,18.80
2018-05-29T05:52:40.842Z,15.87
2018-05-29T05:55:06.828Z,15.90
2018-05-29T05:57:32.950Z,11.63
2018-05-29T05:59:59.772Z,18.70
2018-05-29T06:02:25.978Z,21.60
2018-05-29T06:04:52.037Z,16.63
2018-05-29T06:07:25.024Z,16.60
2018-05-29T06:09:51.252Z,20.73
2018-05-29T06:12:18.052Z,18.00
2018-05-29T06:14:44.282Z,22.13
2018-05-29T06:17:10.732Z,14.23
2018-05-29T06:19:36.780Z,15.67
2018-05-29T06:22:02.870Z,16.33
2018-05-29T06:24:29.129Z,17.40
2018-05-29T06:26:55.186Z,14.60
2018-05-29T06:29:21.255Z,16.23
2018-05-29T06:31:49.376Z,14.63
2018-05-29T06:34:15.794Z,16.33
2018-05-29T06:36:41.980Z,16.17
2018-05-29T06:39:08.041Z,19.87
2018-05-29T06:41:34.086Z,19.53
2018-05-29T06:44:00.982Z,12.80
2018-05-29T06:46:27.766Z,15.02
2018-05-29T06:48:53.802Z,14.93
2018-05-29T06:51:19.858Z,14.98
2018-05-29T06:53:46.011Z,16.55
2018-05-29T06:56:12.166Z,14.87
2018-05-29T06:58:38.247Z,22.40
2018-05-29T07:01:04.373Z,16.17
2018-05-29T07:03:31.184Z,14.90
2018-05-29T07:05:57.257Z,16.30
2018-05-29T07:08:24.175Z,11.97
2018-05-29T07:10:50.289Z,29.47
2018-05-29T07:13:16.570Z,12.23
2018-05-29T07:15:42.723Z,15.83
2018-05-29T07:18:08.779Z,14.00
2018-05-29T07:20:35.567Z,17.23
2018-05-29T07:23:02.099Z,14.03
2018-05-29T07:25:28.184Z,14.03
2018-05-29T07:27:54.204Z,18.80
2018-05-29T07:30:20.242Z,14.50
2018-05-29T07:32:46.337Z,12.43
2018-05-29T07:35:13.241Z,14.87
2018-05-29T07:37:39.297Z,16.60
2018-05-29T07:40:05.325Z,16.60
2018-05-29T07:42:31.536Z,28.40
2018-05-29T07:44:57.580Z,16.27
2018-05-29T07:47:23.641Z,12.10
2018-05-29T07:49:49.738Z,17.07
2018-05-29T07:52:16.518Z,14.13
2018-05-29T07:54:42.581Z,17.07
2018-05-29T07:57:08.648Z,17.03
2018-05-29T07:59:35.428Z,14.73
2018-05-29T08:02:01.451Z,13.47
2018-05-29T08:04:27.497Z,8.37
2018-05-29T08:06:53.599Z,10.90
2018-05-29T08:09:19.622Z,11.13
2018-05-29T08:11:45.677Z,11.27
2018-05-29T08:14:12.467Z,16.93
2018-05-29T08:16:38.517Z,17.63
2018-05-29T08:19:04.926Z,13.73
2018-05-29T08:21:37.842Z,12.60
2018-05-29T08:24:03.873Z,19.07
2018-05-29T08:26:29.906Z,15.63
2018-05-29T08:28:56.053Z,25.53
2018-05-29T08:31:22.108Z,17.60
2018-05-29T08:33:48.170Z,15.10
2018-05-29T08:36:14.244Z,17.30
2018-05-29T08:38:41.011Z,16.00
2018-05-29T08:41:07.054Z,11.37
2018-05-29T08:43:33.148Z,14.40
2018-05-29T08:45:59.218Z,12.30
2018-05-29T08:48:26.014Z,11.20
2018-05-29T08:50:52.166Z,12.13
2018-05-29T08:53:18.270Z,15.13
2018-05-29T08:55:44.334Z,25.60
2018-05-29T08:58:10.443Z,13.20
2018-05-29T09:00:36.486Z,14.67
2018-05-29T09:03:02.573Z,11.20
2018-05-29T09:05:28.613Z,15.50
2018-05-29T09:07:54.650Z,9.23
2018-05-29T09:10:20.679Z,13.20
2018-05-29T09:12:46.711Z,9.80
2018-05-29T09:15:12.804Z,9.13
2018-05-29T09:17:38.830Z,16.10
2018-05-29T09:20:04.910Z,11.13
2018-05-29T09:22:31.198Z,16.10
2018-05-29T09:24:57.958Z,13.43
2018-05-29T09:27:24.778Z,9.53
2018-05-29T09:29:50.885Z,9.77
2018-05-29T09:32:16.911Z,12.77
2018-05-29T09:34:43.055Z,13.43
2018-05-29T09:37:09.079Z,11.07
2018-05-29T09:39:35.244Z,10.67
2018-05-29T09:42:01.314Z,11.40
2018-05-29T09:44:27.379Z,13.33
2018-05-29T09:46:53.482Z,7.73
2018-05-29T09:49:19.540Z,13.87
2018-05-29T09:51:46.338Z,11.50
2018-05-29T09:54:12.379Z,13.20
2018-05-29T09:56:38.396Z,15.17
2018-05-29T09:59:04.448Z,7.60
2018-05-29T10:01:31.279Z,11.57
2018-05-29T10:03:57.301Z,14.73
2018-05-29T10:06:24.087Z,20.60
2018-05-29T10:08:50.140Z,16.00
2018-05-29T10:11:16.291Z,12.50
2018-05-29T10:13:42.316Z,10.47
2018-05-29T10:16:08.381Z,12.88
2018-05-29T10:18:34.489Z,32.73
2018-05-29T10:21:00.588Z,13.10
2018-05-29T10:23:27.437Z,10.73
2018-05-29T10:25:53.452Z,10.43
2018-05-29T10:28:19.501Z,10.50
2018-05-29T10:30:45.578Z,11.77
2018-05-29T10:33:11.729Z,19.20
2018-05-29T10:35:37.753Z,7.33
2018-05-29T10:38:03.813Z,9.03
2018-05-29T10:40:29.956Z,6.33
2018-05-29T10:42:56.036Z,8.07
2018-05-29T10:45:22.088Z,11.20
2018-05-29T10:47:48.175Z,9.70
2018-05-29T10:50:14.241Z,8.60
2018-05-29T10:52:40.362Z,17.00
2018-05-29T10:55:06.464Z,8.33
2018-05-29T10:57:32.550Z,5.67
2018-05-29T10:59:58.637Z,8.43
2018-05-29T11:02:24.686Z,8.57
2018-05-29T11:04:50.694Z,7.33
2018-05-29T11:07:16.759Z,9.67
2018-05-29T11:09:42.913Z,10.20
2018-05-29T11:14:35.468Z,11.55
2018-05-29T11:17:01.504Z,10.55
2018-05-29T11:19:27.542Z,8.65
2018-05-29T11:21:53.610Z,8.50
2018-05-29T11:24:19.642Z,7.40
2018-05-29T11:26:45.706Z,11.13
2018-05-29T11:29:12.717Z,9.00
2018-05-29T11:31:38.763Z,6.43
2018-05-29T11:34:04.833Z,6.25
2018-05-29T11:36:30.899Z,6.68
2018-05-29T11:38:57.652Z,10.23
2018-05-29T11:41:24.445Z,6.37
2018-05-29T11:43:50.505Z,7.62
2018-05-29T11:46:16.566Z,6.82
2018-05-29T11:48:43.390Z,7.40
2018-05-29T11:51:09.478Z,3.75
2018-05-29T11:53:36.320Z,6.45
2018-05-29T11:56:02.380Z,9.90
2018-05-29T11:58:28.501Z,5.00
2018-05-29T12:00:55.370Z,7.10
2018-05-29T12:03:22.206Z,5.60
2018-05-29T12:05:48.282Z,6.00
2018-05-29T12:08:14.355Z,7.12
2018-05-29T12:10:40.467Z,5.05
2018-05-29T12:13:06.515Z,4.97
2018-05-29T12:15:32.824Z,6.25
2018-05-29T12:17:58.857Z,9.30
2018-05-29T12:20:25.637Z,4.57
2018-05-29T12:22:51.750Z,7.50
2018-05-29T12:25:18.621Z,3.90
2018-05-29T12:27:44.904Z,2.60
2018-05-29T12:30:11.765Z,4.47
2018-05-29T12:32:37.916Z,3.85
2018-05-29T12:35:04.116Z,4.97
2018-05-29T12:37:30.473Z,4.68
2018-05-29T12:39:56.515Z,4.28
2018-05-29T12:42:29.494Z,4.90
2018-05-29T12:44:55.521Z,1.98
2018-05-29T12:47:21.587Z,5.12
2018-05-29T12:49:47.676Z,11.95
2018-05-29T12:52:13.801Z,7.15
2018-05-29T12:54:40.593Z,5.43
2018-05-29T12:57:06.825Z,2.83
2018-05-29T12:59:32.909Z,2.28
2018-05-29T13:01:58.970Z,6.32
2018-05-29T13:04:25.777Z,2.00
2018-05-29T13:06:51.842Z,12.43
2018-05-29T13:09:17.968Z,2.50
2018-05-29T13:11:44.127Z,3.05
2018-05-29T13:14:10.158Z,4.03
2018-05-29T13:16:36.222Z,5.25
2018-05-29T13:19:02.289Z,5.32
2018-05-29T13:21:28.341Z,2.65
2018-05-29T13:23:54.410Z,2.92
2018-05-29T13:26:20.717Z,3.08
2018-05-29T13:28:46.794Z,5.32
2018-05-29T13:31:12.950Z,3.03
2018-05-29T13:33:39.010Z,4.45
2018-05-29T13:36:05.061Z,3.47
2018-05-29T13:38:31.149Z,9.68
2018-05-29T13:40:57.173Z,4.95
2018-05-29T13:43:23.199Z,4.97
2018-05-29T13:45:49.286Z,4.25
2018-05-29T13:48:16.070Z,3.10
2018-05-29T13:50:42.190Z,4.75
2018-05-29T13:53:08.244Z,2.50
2018-05-29T13:55:34.301Z,1.90
2018-05-29T13:58:00.357Z,3.00
2018-05-29T14:00:26.405Z,3.53
2018-05-29T14:02:52.453Z,3.28
2018-05-29T14:05:19.279Z,2.58
2018-05-29T14:07:45.449Z,2.87
2018-05-29T14:10:12.311Z,1.80
2018-05-29T14:12:38.363Z,1.98
2018-05-29T14:15:05.164Z,2.72
2018-05-29T14:17:31.197Z,8.35
2018-05-29T14:19:58.006Z,1.70
2018-05-29T14:22:24.039Z,4.18
2018-05-29T14:24:50.176Z,2.83
2018-05-29T14:27:16.251Z,3.78
2018-05-29T14:29:42.398Z,5.12
2018-05-29T14:32:08.506Z,3.35
2018-05-29T14:34:34.603Z,8.02
2018-05-29T14:37:00.649Z,2.42
2018-05-29T14:39:27.458Z,3.08
2018-05-29T14:41:53.513Z,4.70
2018-05-29T14:44:19.671Z,6.32
2018-05-29T14:46:45.689Z,5.12
2018-05-29T14:49:11.752Z,3.62
2018-05-29T14:51:38.534Z,1.90
2018-05-29T14:54:04.601Z,2.35
2018-05-29T14:56:30.690Z,3.65
2018-05-29T14:58:56.727Z,3.47
2018-05-29T15:01:22.894Z,4.37
2018-05-29T15:03:49.001Z,3.92
2018-05-29T15:06:15.081Z,3.47
2018-05-29T15:08:41.626Z,8.00
2018-05-29T15:11:07.789Z,4.28
2018-05-29T15:13:33.958Z,2.58
2018-05-29T15:16:00.755Z,3.55
2018-05-29T15:18:26.817Z,1.83
2018-05-29T15:20:52.925Z,3.62
2018-05-29T15:23:19.019Z,5.90
2018-05-29T15:25:45.080Z,4.18
2018-05-29T15:28:11.191Z,3.78
2018-05-29T15:30:37.299Z,5.90
2018-05-29T15:33:03.466Z,2.00
2018-05-29T15:35:29.555Z,4.35
2018-05-29T15:37:55.640Z,2.53
2018-05-29T15:40:21.709Z,3.53
2018-05-29T15:42:48.571Z,4.20
2018-05-29T15:45:14.741Z,5.50
2018-05-29T15:47:40.905Z,4.53
2018-05-29T15:50:06.951Z,4.93
2018-05-29T15:52:33.030Z,4.87
2018-05-29T15:54:59.078Z,5.75
2018-05-29T15:57:25.141Z,8.20
2018-05-29T15:59:51.195Z,2.85
2018-05-29T16:02:17.254Z,1.60
2018-05-29T16:04:44.156Z,2.28
2018-05-29T16:07:11.025Z,10.48
2018-05-29T16:09:37.063Z,2.33
2018-05-29T16:12:03.102Z,33.78
2018-05-29T16:14:29.330Z,2.00
2018-05-29T16:16:55.405Z,3.15
2018-05-29T16:19:21.434Z,2.03
2018-05-29T16:21:47.573Z,2.17
2018-05-29T16:24:13.737Z,2.87
2018-05-29T16:26:40.578Z,3.37
2018-05-29T16:29:06.935Z,5.50
2018-05-29T16:31:32.990Z,2.97
2018-05-29T16:33:59.081Z,1.95
2018-05-29T16:36:25.150Z,2.35
2018-05-29T16:38:51.925Z,4.50
2018-05-29T16:41:18.029Z,4.90
2018-05-29T16:43:44.106Z,3.92
2018-05-29T16:46:10.154Z,2.17
2018-05-29T16:48:36.214Z,5.07
2018-05-29T16:51:02.253Z,3.20
2018-05-29T16:53:28.405Z,5.00
2018-05-29T16:55:54.509Z,4.37
2018-05-29T16:58:20.573Z,3.83
2018-05-29T17:00:46.945Z,2.55
2018-05-29T17:03:12.989Z,4.53
2018-05-29T17:05:39.762Z,3.92
2018-05-29T17:08:05.812Z,5.53
2018-05-29T17:10:31.852Z,5.85
2018-05-29T17:12:58.289Z,2.97
2018-05-29T17:15:24.439Z,7.45
2018-05-29T17:17:50.387Z,7.32
2018-05-29T17:20:16.430Z,6.35
2018-05-29T17:22:42.486Z,4.57
2018-05-29T17:25:08.734Z,6.85
2018-05-29T17:27:41.903Z,3.10
2018-05-29T17:30:07.982Z,6.20
2018-05-29T17:32:34.034Z,7.00
2018-05-29T17:35:00.822Z,8.27
2018-05-29T17:37:26.900Z,3.60
2018-05-29T17:39:52.921Z,12.85
2018-05-29T17:42:19.714Z,9.02
2018-05-29T17:47:12.481Z,8.60
2018-05-29T17:49:38.536Z,5.22
2018-05-29T17:54:31.313Z,7.95
2018-05-29T17:56:57.337Z,8.53
2018-05-29T17:59:23.406Z,9.70
2018-05-29T18:01:50.201Z,12.20
2018-05-29T18:04:16.229Z,10.57
2018-05-29T18:06:42.275Z,6.97
2018-05-29T18:09:08.332Z,5.50
2018-05-29T18:14:00.362Z,9.23
2018-05-29T18:16:26.455Z,7.60
2018-05-29T18:18:52.472Z,9.38
2018-05-29T18:21:18.502Z,7.33
2018-05-29T18:23:44.656Z,6.97
2018-05-29T18:26:10.852Z,9.10
2018-05-29T18:28:36.876Z,8.32
2018-05-29T18:31:03.242Z,7.15
2018-05-29T18:33:30.030Z,4.83
2018-05-29T18:35:56.090Z,3.77
2018-05-29T18:38:22.146Z,3.97
2018-05-29T18:40:48.151Z,6.00
2018-05-29T18:43:14.441Z,6.37
2018-05-29T18:45:40.502Z,13.87
2018-05-29T18:48:06.526Z,13.00
2018-05-29T18:50:32.721Z,10.23
2018-05-29T18:52:58.779Z,9.53
2018-05-29T18:55:24.842Z,7.17
2018-05-29T18:57:50.904Z,7.37
2018-05-29T19:00:16.991Z,6.53
2018-05-29T19:10:00.943Z,8.50
2018-05-29T19:12:27.864Z,9.60
2018-05-29T19:14:54.017Z,8.30
2018-05-29T19:17:20.098Z,5.87
2018-05-29T19:19:46.212Z,6.47
2018-05-29T19:22:13.558Z,4.25
2018-05-29T19:24:39.621Z,5.75
2018-05-29T19:27:06.469Z,7.85
2018-05-29T19:29:33.259Z,7.05
2018-05-29T19:31:59.303Z,11.73
2018-05-29T19:34:25.421Z,9.20
2018-05-29T19:36:51.437Z,19.90
2018-05-29T19:39:17.478Z,13.65
2018-05-29T19:41:44.287Z,16.20
2018-05-29T19:44:10.783Z,15.32
2018-05-29T19:46:37.595Z,12.80
2018-05-29T19:49:03.686Z,8.05
2018-05-29T19:51:30.595Z,6.97
2018-05-29T19:53:56.659Z,8.35
2018-05-29T19:56:22.714Z,7.20
2018-05-29T19:58:48.769Z,8.68
2018-05-29T20:01:14.847Z,6.43
2018-05-29T20:08:33.566Z,5.63
2018-05-29T20:10:59.601Z,5.27
2018-05-29T20:13:25.693Z,7.63
2018-05-29T20:15:52.455Z,12.03
2018-05-29T20:18:18.503Z,7.13
2018-05-29T20:20:44.638Z,5.90
2018-05-29T20:23:10.725Z,10.17
2018-05-29T20:25:37.571Z,7.53
2018-05-29T20:28:03.638Z,12.00
2018-05-29T20:30:30.445Z,6.00
2018-05-29T20:32:56.571Z,7.30
2018-05-29T20:35:22.622Z,10.50
2018-05-29T20:37:48.649Z,12.90
2018-05-29T20:40:14.787Z,9.03
2018-05-29T20:42:40.854Z,7.10
2018-05-29T20:45:06.876Z,6.87
2018-05-29T20:47:32.916Z,6.67
2018-05-29T20:49:58.999Z,6.93
2018-05-29T20:52:25.225Z,6.83
2018-05-29T20:54:51.282Z,9.83
2018-05-29T20:57:17.362Z,7.70
2018-05-29T20:59:43.405Z,6.07
2018-05-29T21:02:09.456Z,9.00
2018-05-29T21:04:35.496Z,10.57
2018-05-29T21:07:01.543Z,5.03
2018-05-29T21:09:27.577Z,7.87
2018-05-29T21:11:53.788Z,5.60
2018-05-29T21:14:20.571Z,8.20
2018-05-29T21:16:46.729Z,6.83
2018-05-29T21:19:13.553Z,7.97
2018-05-29T21:21:39.607Z,5.50
2018-05-29T21:24:05.653Z,13.43
2018-05-29T21:26:32.449Z,8.70
2018-05-29T21:28:58.498Z,7.50
2018-05-29T21:31:24.542Z,5.10
2018-05-29T21:33:50.564Z,7.00
2018-05-29T21:36:16.589Z,16.73
2018-05-29T21:38:42.817Z,7.30
2018-05-29T21:41:08.842Z,9.50
2018-05-29T21:43:34.943Z,7.50
2018-05-29T21:46:01.014Z,5.30
2018-05-29T21:48:27.810Z,9.73
2018-05-29T21:50:53.853Z,9.03
2018-05-29T21:53:19.881Z,7.13
2018-05-29T21:55:46.009Z,7.83
2018-05-29T21:58:12.047Z,7.93
2018-05-29T22:00:38.341Z,11.33
2018-05-29T22:03:04.389Z,9.70
2018-05-29T22:05:30.408Z,6.10
2018-05-29T22:07:56.474Z,9.80
2018-05-29T22:10:23.253Z,9.80
2018-05-29T22:12:49.274Z,9.93
2018-05-29T22:15:16.054Z,9.97
2018-05-29T22:17:42.497Z,10.80
2018-05-29T22:20:08.554Z,14.83
2018-05-29T22:22:35.090Z,11.03
2018-05-29T22:25:01.182Z,7.00
2018-05-29T22:27:27.930Z,5.03
2018-05-29T22:29:53.982Z,10.17
2018-05-29T22:32:20.776Z,8.80
2018-05-29T22:34:46.806Z,10.23
2018-05-29T22:37:12.857Z,7.50
2018-05-29T22:39:38.934Z,6.60
2018-05-29T22:42:04.922Z,7.00
2018-05-29T22:44:30.997Z,6.67
2018-05-29T22:46:57.122Z,13.10
2018-05-29T22:49:23.134Z,14.30
2018-05-29T22:51:49.261Z,9.03
2018-05-29T22:54:15.334Z,9.97
2018-05-29T22:56:41.420Z,9.83
2018-05-29T22:59:07.448Z,7.77
2018-05-29T23:01:33.473Z,15.33
2018-05-29T23:04:00.216Z,6.10
2018-05-29T23:06:26.237Z,14.73
2018-05-29T23:08:52.286Z,5.33
2018-05-29T23:11:18.282Z,12.40
2018-05-29T23:13:44.322Z,7.03
2018-05-29T23:16:10.350Z,7.27
2018-05-29T23:18:36.453Z,6.70
2018-05-29T23:21:03.249Z,10.23
2018-05-29T23:23:29.293Z,6.13
2018-05-29T23:25:55.362Z,4.77
2018-05-29T23:28:21.444Z,7.73
2018-05-29T23:30:47.518Z,8.10
2018-05-29T23:33:13.652Z,15.00
2018-05-29T23:35:40.472Z,11.63
2018-05-29T23:38:06.499Z,9.60
2018-05-29T23:40:33.266Z,8.47
2018-05-29T23:42:59.312Z,5.17
2018-05-29T23:45:25.363Z,11.60
2018-05-29T23:47:51.387Z,6.50
2018-05-29T23:50:17.429Z,5.63
2018-05-29T23:52:43.483Z,6.10
2018-05-29T23:55:09.504Z,5.00
2018-05-29T23:57:35.497Z,5.33
